Time;durP1;ratioP1;P1;durP2;ratioP2;P2;SDS_P1;SDS_P2;PMS_P1;PMS_P2;Temp;Humidity;BMP_temperature;BMP_pressure;BME280_temperature;BME280_humidity;BME280_pressure;Samples;Min_cycle;Max_cycle;Signal;HPM_P1;HPM_P2
2021/01/23 00:05:40;;;;;;;18.00;14.73;;;0.40;99.90;;;;;;4883907;29;20456;-89
2021/01/23 00:08:06;;;;;;;17.90;14.87;;;0.30;99.90;;;;;;4884163;29;20500;-89
2021/01/23 00:10:33;;;;;;;18.77;15.43;;;0.30;99.90;;;;;;4884307;29;20474;-89
2021/01/23 00:13:02;;;;;;;23.73;16.13;;;0.20;99.90;;;;;;4883651;29;20894;-89
2021/01/23 00:15:30;;;;;;;17.57;14.60;;;0.30;99.90;;;;;;4883926;29;20474;-89
2021/01/23 00:17:57;;;;;;;19.83;15.97;;;0.30;99.90;;;;;;4883776;29;20476;-89
2021/01/23 00:20:23;;;;;;;18.30;14.40;;;0.30;99.90;;;;;;4883415;29;20566;-89
2021/01/23 00:22:50;;;;;;;17.97;15.43;;;0.30;99.90;;;;;;4884115;29;20471;-89
2021/01/23 00:25:17;;;;;;;17.07;15.23;;;0.30;99.90;;;;;;4883917;29;20535;-89
2021/01/23 00:27:43;;;;;;;18.43;14.77;;;0.30;99.90;;;;;;4884019;29;20498;-89
2021/01/23 00:30:11;;;;;;;18.30;14.80;;;0.30;99.90;;;;;;4883934;29;20466;-89
2021/01/23 00:32:39;;;;;;;20.33;14.20;;;0.30;99.90;;;;;;4883871;29;20936;-89
2021/01/23 00:35:06;;;;;;;17.13;14.90;;;0.20;99.90;;;;;;4883484;29;20467;-89
2021/01/23 00:37:34;;;;;;;16.60;14.60;;;0.10;99.90;;;;;;4884124;29;20481;-89
2021/01/23 00:40:01;;;;;;;20.13;15.60;;;0.10;99.90;;;;;;4883869;29;20498;-89
2021/01/23 00:42:28;;;;;;;18.60;15.07;;;0.10;99.90;;;;;;4883219;29;20467;-89
2021/01/23 00:44:55;;;;;;;17.73;15.43;;;0.00;99.90;;;;;;4883938;29;20550;-89
2021/01/23 00:47:21;;;;;;;18.13;14.73;;;0.00;99.90;;;;;;4883506;29;20521;-89
2021/01/23 00:49:51;;;;;;;20.37;15.50;;;0.00;99.90;;;;;;4884026;29;20917;-89
2021/01/23 00:52:18;;;;;;;17.80;14.30;;;0.00;99.90;;;;;;4883582;29;20433;-89
2021/01/23 00:54:44;;;;;;;18.50;15.53;;;0.00;99.90;;;;;;4883332;29;20463;-89
2021/01/23 00:57:11;;;;;;;16.93;15.13;;;0.10;99.90;;;;;;4883326;29;20471;-89
2021/01/23 00:59:38;;;;;;;19.90;15.33;;;0.10;99.90;;;;;;4883935;29;20482;-89
2021/01/23 01:02:04;;;;;;;19.07;16.80;;;0.20;99.90;;;;;;4883107;29;20466;-89
2021/01/23 01:04:31;;;;;;;17.30;14.60;;;0.30;99.90;;;;;;4883770;29;20477;-89
2021/01/23 01:06:59;;;;;;;19.07;14.57;;;0.20;99.90;;;;;;4883946;29;20481;-89
2021/01/23 01:09:27;;;;;;;20.70;15.00;;;0.10;99.90;;;;;;4883721;29;20441;-89
2021/01/23 01:11:54;;;;;;;21.50;15.10;;;0.10;99.90;;;;;;4883622;29;20474;-89
2021/01/23 01:14:21;;;;;;;18.43;14.10;;;0.10;99.90;;;;;;4883815;29;20477;-89
2021/01/23 01:16:47;;;;;;;19.80;16.10;;;0.10;99.90;;;;;;4868138;29;20471;-89
2021/01/23 01:19:14;;;;;;;21.57;16.33;;;0.10;99.90;;;;;;4868143;29;20513;-89
2021/01/23 01:21:41;;;;;;;31.03;23.67;;;0.00;99.90;;;;;;4882476;29;20470;-89
2021/01/23 01:24:09;;;;;;;36.50;26.50;;;0.10;99.90;;;;;;4887217;29;20472;-90
2021/01/23 01:26:36;;;;;;;30.47;24.40;;;0.00;99.90;;;;;;4869103;29;20782;-89
2021/01/23 01:29:03;;;;;;;40.10;27.83;;;0.10;99.90;;;;;;4868521;29;20620;-89
2021/01/23 01:31:29;;;;;;;26.73;21.13;;;0.00;99.90;;;;;;4868125;29;20486;-89
2021/01/23 01:33:56;;;;;;;20.30;15.90;;;0.00;99.90;;;;;;4871448;29;20512;-89
2021/01/23 01:36:23;;;;;;;22.53;16.00;;;0.00;99.90;;;;;;4885984;29;20495;-89
2021/01/23 01:38:49;;;;;;;22.57;15.20;;;0.00;99.90;;;;;;4882626;29;20462;-89
2021/01/23 01:41:17;;;;;;;21.90;14.37;;;0.10;99.90;;;;;;4886403;29;20494;-89
2021/01/23 01:43:45;;;;;;;21.53;15.90;;;0.10;99.90;;;;;;4875515;29;20476;-89
2021/01/23 01:46:14;;;;;;;22.60;15.70;;;0.20;99.90;;;;;;4868411;29;20472;-89
2021/01/23 01:48:42;;;;;;;25.93;15.43;;;0.30;99.90;;;;;;4878529;29;20475;-89
2021/01/23 01:51:08;;;;;;;22.60;14.63;;;0.30;99.90;;;;;;4886207;29;20460;-89
2021/01/23 01:53:38;;;;;;;16.43;14.53;;;0.40;99.90;;;;;;4873003;29;20558;-89
2021/01/23 01:56:07;;;;;;;24.30;16.30;;;0.50;99.90;;;;;;4868876;29;20479;-89
2021/01/23 01:58:35;;;;;;;20.57;14.50;;;0.50;99.90;;;;;;4882578;29;20453;-89
2021/01/23 02:01:01;;;;;;;18.07;14.30;;;0.60;99.90;;;;;;4883830;29;20466;-89
2021/01/23 02:03:53;;;;;;;19.27;14.37;;;0.60;99.90;;;;;;4885017;29;21019;-89
2021/01/23 02:06:41;;;;;;;20.43;15.40;;;0.70;99.90;;;;;;4882447;29;20490;-89
2021/01/23 02:09:17;;;;;;;24.00;15.10;;;0.70;99.90;;;;;;4885940;29;20465;-89
2021/01/23 02:11:55;;;;;;;19.10;14.03;;;0.80;99.90;;;;;;4882315;29;20475;-89
2021/01/23 02:14:30;;;;;;;18.57;13.87;;;0.80;99.90;;;;;;4885858;29;20462;-89
2021/01/23 02:17:02;;;;;;;20.97;14.83;;;0.80;99.90;;;;;;4867714;29;20547;-89
2021/01/23 02:20:07;;;;;;;21.97;14.63;;;0.90;99.90;;;;;;4871165;29;20478;-89
2021/01/23 02:22:49;;;;;;;20.93;14.77;;;0.90;99.90;;;;;;4867609;29;20821;-89
2021/01/23 02:25:19;;;;;;;21.70;14.33;;;1.00;99.90;;;;;;4877388;29;20481;-89
2021/01/23 02:27:52;;;;;;;18.07;14.43;;;0.90;99.90;;;;;;4885892;29;20497;-89
2021/01/23 02:30:25;;;;;;;19.67;14.90;;;0.90;99.90;;;;;;4881352;29;20574;-89
2021/01/23 02:32:57;;;;;;;19.23;14.43;;;0.90;99.90;;;;;;4884772;29;20498;-89
2021/01/23 02:35:25;;;;;;;20.80;13.80;;;0.90;99.90;;;;;;4869254;29;20476;-89
2021/01/23 02:37:55;;;;;;;18.53;14.13;;;0.90;99.90;;;;;;4871328;29;20467;-89
2021/01/23 02:40:22;;;;;;;21.40;14.80;;;0.90;99.90;;;;;;4867361;29;20495;-89
2021/01/23 02:42:49;;;;;;;19.87;14.40;;;0.90;99.90;;;;;;4877993;29;20524;-89
2021/01/23 02:45:16;;;;;;;17.80;13.90;;;0.90;99.90;;;;;;4866966;29;20480;-89
2021/01/23 02:47:43;;;;;;;19.77;14.53;;;0.80;99.90;;;;;;4870362;29;20553;-89
2021/01/23 02:50:11;;;;;;;24.17;15.67;;;0.80;99.90;;;;;;4867445;29;20508;-89
2021/01/23 02:52:47;;;;;;;18.17;14.33;;;0.70;99.90;;;;;;4876145;29;20478;-89
2021/01/23 02:55:16;;;;;;;17.53;14.43;;;0.80;99.90;;;;;;4885105;29;20556;-89
2021/01/23 02:57:44;;;;;;;23.33;15.40;;;0.80;99.90;;;;;;4872494;29;20475;-89
2021/01/23 03:00:12;;;;;;;17.67;14.53;;;0.70;99.90;;;;;;4867951;29;20769;-89
2021/01/23 03:02:44;;;;;;;20.37;14.43;;;0.70;99.90;;;;;;4881586;29;20471;-89
2021/01/23 03:05:13;;;;;;;21.70;15.50;;;0.70;99.90;;;;;;4883549;29;20815;-89
2021/01/23 03:07:40;;;;;;;17.97;15.33;;;0.70;99.90;;;;;;4884719;29;20959;-89
2021/01/23 03:10:08;;;;;;;21.43;16.10;;;0.80;99.90;;;;;;4881812;29;20467;-89
2021/01/23 03:12:35;;;;;;;21.10;14.90;;;0.70;99.90;;;;;;4885031;29;20756;-89
2021/01/23 03:15:02;;;;;;;16.13;14.33;;;0.70;99.90;;;;;;4878171;29;20918;-89
2021/01/23 03:17:28;;;;;;;22.33;14.97;;;0.80;99.90;;;;;;4866544;29;20555;-89
2021/01/23 03:19:55;;;;;;;21.93;15.00;;;0.80;99.90;;;;;;4874449;29;20522;-89
2021/01/23 03:22:22;;;;;;;21.07;12.90;;;0.80;99.90;;;;;;4885001;29;20505;-89
2021/01/23 03:24:49;;;;;;;17.80;14.40;;;0.70;99.90;;;;;;4874158;29;20535;-89
2021/01/23 03:27:16;;;;;;;21.57;15.30;;;0.70;99.90;;;;;;4866056;29;20598;-89
2021/01/23 03:29:43;;;;;;;17.60;14.90;;;0.70;99.90;;;;;;4877370;29;20844;-89
2021/01/23 03:32:10;;;;;;;20.53;14.23;;;0.70;99.90;;;;;;4884406;29;20481;-89
2021/01/23 03:34:36;;;;;;;19.80;15.00;;;0.70;99.90;;;;;;4870064;29;20837;-89
2021/01/23 03:37:03;;;;;;;19.00;15.00;;;0.70;99.90;;;;;;4867337;29;20470;-89
2021/01/23 03:39:31;;;;;;;18.50;14.73;;;0.60;99.90;;;;;;4881399;29;20579;-89
2021/01/23 03:41:57;;;;;;;20.57;15.07;;;0.50;99.90;;;;;;4883507;29;20614;-89
2021/01/23 03:44:24;;;;;;;16.43;14.07;;;0.50;99.90;;;;;;4866358;29;20471;-89
2021/01/23 03:46:51;;;;;;;19.73;14.50;;;0.50;99.90;;;;;;4869374;29;20555;-89
2021/01/23 03:49:17;;;;;;;27.27;18.83;;;0.60;99.90;;;;;;4866188;29;20471;-89
2021/01/23 03:51:44;;;;;;;20.77;16.03;;;0.60;99.90;;;;;;4869030;29;20527;-89
2021/01/23 03:54:10;;;;;;;22.97;15.60;;;0.60;99.90;;;;;;4866302;29;20958;-89
2021/01/23 03:56:38;;;;;;;19.37;15.30;;;0.60;99.90;;;;;;4873946;29;20979;-89
2021/01/23 03:59:05;;;;;;;19.90;16.10;;;0.50;99.90;;;;;;4884653;29;20550;-89
2021/01/23 04:01:31;;;;;;;20.57;15.33;;;0.50;99.90;;;;;;4880202;29;20504;-89
2021/01/23 04:03:58;;;;;;;18.87;15.03;;;0.50;99.90;;;;;;4884505;29;20534;-89
2021/01/23 04:06:25;;;;;;;19.87;14.40;;;0.50;99.90;;;;;;4870756;29;20931;-89
2021/01/23 04:08:52;;;;;;;19.73;16.27;;;0.50;99.90;;;;;;4865719;29;20480;-89
2021/01/23 04:11:18;;;;;;;17.97;13.97;;;0.60;99.90;;;;;;4864677;29;20481;-89
2021/01/23 04:13:46;;;;;;;20.93;13.40;;;0.50;99.90;;;;;;4867202;29;20563;-89
2021/01/23 04:16:13;;;;;;;17.93;13.80;;;0.30;99.90;;;;;;4865772;29;20510;-89
2021/01/23 04:18:39;;;;;;;19.50;15.20;;;0.40;99.90;;;;;;4866892;29;20865;-89
2021/01/23 04:21:06;;;;;;;18.13;14.37;;;0.40;99.90;;;;;;4883788;29;20467;-89
2021/01/23 04:23:34;;;;;;;18.30;13.20;;;0.50;99.90;;;;;;4879649;29;20502;-89
2021/01/23 04:26:00;;;;;;;20.43;14.30;;;0.50;99.90;;;;;;4883424;29;20459;-89
2021/01/23 04:28:27;;;;;;;16.40;12.60;;;0.50;99.90;;;;;;4879684;29;20491;-89
2021/01/23 04:30:55;;;;;;;15.10;12.17;;;0.50;99.90;;;;;;4883577;29;20474;-89
2021/01/23 04:33:21;;;;;;;14.53;12.37;;;0.50;99.90;;;;;;4875270;29;20469;-89
2021/01/23 04:35:48;;;;;;;18.67;12.67;;;0.60;99.90;;;;;;4865703;29;20538;-89
2021/01/23 04:38:15;;;;;;;21.40;12.53;;;0.50;99.90;;;;;;4876203;29;20467;-89
2021/01/23 04:40:42;;;;;;;12.90;10.90;;;0.50;99.90;;;;;;4883634;29;20509;-89
2021/01/23 04:43:10;;;;;;;15.23;12.60;;;0.60;99.90;;;;;;4878582;29;20481;-89
2021/01/23 04:45:37;;;;;;;14.10;10.93;;;0.60;99.90;;;;;;4882299;29;20554;-89
2021/01/23 04:48:05;;;;;;;14.83;10.27;;;0.60;99.90;;;;;;4880277;29;20558;-89
2021/01/23 04:50:32;;;;;;;13.77;10.97;;;0.70;99.90;;;;;;4884158;29;20534;-89
2021/01/23 04:52:59;;;;;;;13.83;9.93;;;0.70;99.90;;;;;;4883243;29;20885;-89
2021/01/23 04:55:26;;;;;;;12.87;10.30;;;0.70;99.90;;;;;;4883504;29;20565;-89
2021/01/23 04:57:52;;;;;;;11.93;9.30;;;0.80;99.90;;;;;;4883728;29;20473;-89
2021/01/23 05:00:20;;;;;;;12.43;10.23;;;0.80;99.90;;;;;;4883815;29;20475;-89
2021/01/23 05:02:59;;;;;;;13.80;10.70;;;0.90;99.90;;;;;;4883370;29;20546;-89
2021/01/23 05:05:26;;;;;;;14.40;10.60;;;0.80;99.90;;;;;;4883309;29;20472;-89
2021/01/23 05:07:53;;;;;;;14.87;11.13;;;0.80;99.90;;;;;;4883663;29;20540;-89
2021/01/23 05:10:23;;;;;;;11.40;10.00;;;0.80;99.90;;;;;;4883808;29;20444;-89
2021/01/23 05:12:51;;;;;;;12.90;10.20;;;0.80;99.90;;;;;;4883269;29;20737;-89
2021/01/23 05:15:21;;;;;;;11.90;9.27;;;0.80;99.90;;;;;;4883554;29;20479;-89
2021/01/23 05:17:54;;;;;;;14.40;9.70;;;0.70;99.90;;;;;;4883372;29;20466;-89
2021/01/23 05:20:33;;;;;;;15.13;11.33;;;0.70;99.90;;;;;;4884025;29;20538;-89
2021/01/23 05:23:00;;;;;;;11.50;10.03;;;0.80;99.90;;;;;;4883063;29;20569;-89
2021/01/23 05:25:28;;;;;;;13.53;9.90;;;0.80;99.90;;;;;;4882784;29;20475;-89
2021/01/23 05:27:55;;;;;;;12.80;9.20;;;0.80;99.90;;;;;;4883236;29;20509;-89
2021/01/23 05:30:22;;;;;;;13.23;9.57;;;1.00;99.90;;;;;;4883371;29;20481;-89
2021/01/23 05:33:06;;;;;;;10.50;9.50;;;1.10;99.90;;;;;;4883009;29;20599;-89
2021/01/23 05:35:35;;;;;;;14.03;9.63;;;1.10;99.90;;;;;;4883277;29;20828;-89
2021/01/23 05:38:18;;;;;;;13.97;9.70;;;1.20;99.90;;;;;;4883212;29;20773;-89
2021/01/23 05:40:44;;;;;;;11.77;9.53;;;1.30;99.90;;;;;;4883094;29;20976;-89
2021/01/23 05:43:11;;;;;;;12.50;9.50;;;1.30;99.90;;;;;;4883192;29;20480;-89
2021/01/23 05:45:47;;;;;;;14.20;9.43;;;1.40;99.90;;;;;;4883710;29;20774;-89
2021/01/23 05:48:15;;;;;;;11.80;9.60;;;1.40;99.90;;;;;;4883198;29;20505;-89
2021/01/23 05:50:43;;;;;;;15.03;9.63;;;1.50;99.90;;;;;;4883152;29;20481;-89
2021/01/23 05:53:09;;;;;;;16.10;10.53;;;1.50;99.90;;;;;;4882773;29;20485;-89
2021/01/23 05:55:36;;;;;;;12.43;9.90;;;1.50;99.90;;;;;;4883500;29;20481;-89
2021/01/23 05:58:04;;;;;;;14.63;9.90;;;1.60;99.90;;;;;;4883515;29;20466;-89
2021/01/23 06:00:31;;;;;;;14.17;9.50;;;1.60;99.90;;;;;;4883142;29;20638;-90
2021/01/23 06:03:00;;;;;;;11.83;8.73;;;1.70;99.90;;;;;;4883235;29;20766;-89
2021/01/23 06:05:27;;;;;;;12.87;9.20;;;1.70;99.90;;;;;;4886273;29;20920;-89
2021/01/23 06:07:54;;;;;;;10.90;9.43;;;1.70;99.90;;;;;;4886389;29;20501;-89
2021/01/23 06:10:41;;;;;;;12.83;9.10;;;1.70;99.90;;;;;;4886358;29;20475;-89
2021/01/23 06:13:36;;;;;;;11.07;9.40;;;1.80;99.90;;;;;;4886487;29;20479;-90
2021/01/23 06:16:04;;;;;;;12.23;9.23;;;1.80;99.90;;;;;;4886663;29;20478;-90
2021/01/23 06:18:31;;;;;;;11.47;10.20;;;1.80;99.90;;;;;;4886542;29;20747;-90
2021/01/23 06:20:59;;;;;;;11.63;9.13;;;1.90;99.90;;;;;;4886316;29;20852;-90
2021/01/23 06:23:49;;;;;;;12.53;9.80;;;1.90;99.90;;;;;;4886698;29;20467;-91
2021/01/23 06:26:18;;;;;;;11.03;9.27;;;1.90;99.90;;;;;;4870318;29;20527;-91
2021/01/23 06:28:52;;;;;;;19.30;10.00;;;1.90;99.90;;;;;;4886781;29;20866;-91
2021/01/23 06:31:39;;;;;;;11.80;9.63;;;1.90;99.90;;;;;;4886766;29;20774;-91
2021/01/23 12:02:32;;;;;;;6.07;5.37;;;9.80;1.00;;;;;;655830;23;21884;-86
2021/01/23 12:13:11;;;;;;;6.70;4.77;;;9.40;1.00;;;;;;4845858;29;20535;-92
2021/01/23 12:15:38;;;;;;;14.83;7.63;;;9.10;1.00;;;;;;4843327;29;20472;-91
2021/01/23 12:18:07;;;;;;;7.40;5.50;;;9.20;1.00;;;;;;4846815;29;20575;-92
2021/01/23 12:20:37;;;;;;;6.77;5.03;;;9.00;1.00;;;;;;4843558;29;20465;-91
2021/01/23 12:23:05;;;;;;;7.03;6.00;;;8.50;1.00;;;;;;4846360;29;20511;-92
2021/01/23 12:26:10;;;;;;;5.50;4.70;;;8.30;1.00;;;;;;4835429;29;20568;-92
2021/01/23 14:08:49;;;;;;;6.13;4.20;;;6.90;1.00;;;;;;4881621;29;20563;-90
2021/01/23 14:11:21;;;;;;;2.70;2.50;;;6.80;1.00;;;;;;4870585;29;20463;-90
2021/01/23 14:13:54;;;;;;;4.83;3.27;;;6.70;1.00;;;;;;4870805;29;20574;-90
2021/01/23 14:16:34;;;;;;;4.97;3.43;;;6.70;1.00;;;;;;4852302;29;20534;-90
2021/01/23 14:19:23;;;;;;;3.30;3.00;;;6.70;1.00;;;;;;4886498;29;20474;-90
2021/01/23 15:42:53;;;;;;;9.13;7.50;;;5.70;99.90;;;;;;4882634;29;20506;-92
2021/01/23 15:45:22;;;;;;;8.60;6.80;;;5.70;1.00;;;;;;4884674;29;20556;-91
2021/01/23 15:47:50;;;;;;;8.50;7.30;;;5.60;1.00;;;;;;4868083;29;20502;-91
2021/01/23 15:50:19;;;;;;;7.20;6.50;;;5.60;1.00;;;;;;4884755;29;20482;-92
2021/01/23 15:52:48;;;;;;;9.43;7.97;;;5.60;1.00;;;;;;4884093;29;20458;-92
2021/01/23 15:55:21;;;;;;;10.47;8.10;;;5.50;1.00;;;;;;4867350;29;20472;-92
2021/01/23 15:58:16;;;;;;;10.80;8.20;;;5.60;1.00;;;;;;4883396;29;20473;-92
2021/01/23 16:00:53;;;;;;;7.70;6.90;;;5.50;1.00;;;;;;4884622;29;20506;-92
2021/01/23 16:03:25;;;;;;;9.23;7.93;;;5.50;1.00;;;;;;4879146;29;20493;-92
2021/01/23 16:05:52;;;;;;;13.03;7.10;;;5.50;43.90;;;;;;4876358;29;20846;-92
2021/01/23 16:08:19;;;;;;;10.70;7.77;;;5.50;33.50;;;;;;4879570;29;20966;-90
2021/01/23 16:10:46;;;;;;;7.93;7.20;;;5.50;49.20;;;;;;4884335;29;20501;-90
2021/01/23 16:13:17;;;;;;;8.60;7.03;;;5.60;18.10;;;;;;4883302;29;20754;-90
2021/01/23 16:15:50;;;;;;;8.33;6.80;;;5.50;7.30;;;;;;4883885;29;20576;-90
2021/01/23 16:18:18;;;;;;;13.70;8.30;;;5.60;27.00;;;;;;4883750;29;20477;-90
2021/01/23 16:20:45;;;;;;;9.27;7.43;;;5.60;10.50;;;;;;4883981;29;20505;-90
2021/01/23 16:23:14;;;;;;;9.60;8.13;;;5.60;30.00;;;;;;4882480;29;20477;-91
2021/01/23 16:25:42;;;;;;;9.10;7.07;;;5.60;99.90;;;;;;4883511;29;20978;-90
2021/01/23 16:28:14;;;;;;;7.80;7.07;;;5.60;99.90;;;;;;4882627;29;20493;-91
2021/01/23 16:30:48;;;;;;;7.60;6.90;;;5.60;99.90;;;;;;4881148;29;20466;-90
2021/01/23 16:33:18;;;;;;;9.90;7.47;;;5.50;99.90;;;;;;4848342;29;20903;-90
2021/01/23 16:35:46;;;;;;;16.30;10.97;;;5.50;99.90;;;;;;4864864;29;20857;-90
2021/01/23 16:38:15;;;;;;;7.93;7.10;;;5.50;99.90;;;;;;4875652;29;20631;-90
2021/01/23 16:40:46;;;;;;;12.60;8.87;;;5.40;99.90;;;;;;4863129;29;20466;-90
2021/01/23 16:43:15;;;;;;;9.30;7.07;;;5.40;1.00;;;;;;4871827;29;20433;-90
2021/01/23 16:45:46;;;;;;;14.20;9.97;;;5.40;1.00;;;;;;4869955;29;20498;-90
2021/01/23 16:48:14;;;;;;;17.33;12.83;;;5.40;1.00;;;;;;4855569;29;20495;-90
2021/01/23 16:50:41;;;;;;;22.07;13.60;;;5.30;1.00;;;;;;4846347;29;20480;-90
2021/01/23 16:53:08;;;;;;;10.60;8.80;;;5.30;1.00;;;;;;4846544;29;20483;-90
2021/01/23 16:55:35;;;;;;;24.33;16.60;;;5.40;99.60;;;;;;4847015;29;20945;-90
2021/01/23 16:58:03;;;;;;;14.67;9.93;;;5.40;8.00;;;;;;4847144;29;20523;-90
2021/01/23 17:00:30;;;;;;;14.80;10.13;;;5.40;1.00;;;;;;4864849;29;20479;-90
2021/01/23 17:02:59;;;;;;;14.00;10.60;;;5.30;25.00;;;;;;4864732;29;20481;-89
2021/01/23 17:05:26;;;;;;;9.90;7.73;;;5.30;2.10;;;;;;4863627;29;20792;-89
2021/01/23 17:07:53;;;;;;;7.97;7.03;;;5.30;1.00;;;;;;4864516;29;20597;-89
2021/01/23 17:10:20;;;;;;;14.03;10.93;;;5.30;1.00;;;;;;4864869;29;20851;-89
2021/01/23 17:12:46;;;;;;;47.17;30.20;;;5.20;10.50;;;;;;4849287;29;20483;-89
2021/01/23 17:15:13;;;;;;;13.97;11.73;;;5.20;90.60;;;;;;4864561;29;20477;-90
2021/01/23 17:17:40;;;;;;;11.17;9.20;;;5.20;99.90;;;;;;4863976;29;20486;-89
2021/01/23 17:20:11;;;;;;;10.23;7.63;;;5.20;99.90;;;;;;4864853;29;20571;-90
2021/01/23 17:22:39;;;;;;;30.10;20.63;;;5.10;26.80;;;;;;4864614;29;20957;-90
2021/01/23 17:25:07;;;;;;;22.27;16.30;;;5.10;99.90;;;;;;4864466;29;20481;-89
2021/01/23 17:27:33;;;;;;;25.87;14.30;;;5.10;99.90;;;;;;4862750;29;20487;-89
2021/01/23 17:30:00;;;;;;;16.97;9.63;;;5.00;99.90;;;;;;4858985;29;20874;-89
2021/01/23 17:32:27;;;;;;;12.67;8.80;;;4.90;99.90;;;;;;4864908;29;20479;-89
2021/01/23 17:34:54;;;;;;;13.03;9.00;;;4.90;1.00;;;;;;4864554;29;20917;-89
2021/01/23 17:37:22;;;;;;;13.17;8.27;;;4.80;11.80;;;;;;4863048;29;20483;-89
2021/01/23 17:39:51;;;;;;;12.73;9.20;;;4.80;99.90;;;;;;4864184;29;20475;-89
2021/01/23 17:42:18;;;;;;;10.57;9.20;;;4.70;1.00;;;;;;4878897;29;20593;-89
2021/01/23 17:44:47;;;;;;;8.93;8.13;;;4.70;99.90;;;;;;4879862;29;20490;-89
2021/01/23 17:47:14;;;;;;;19.73;14.97;;;4.60;1.00;;;;;;4872749;29;20514;-90
2021/01/23 17:49:41;;;;;;;19.83;17.70;;;4.60;99.90;;;;;;4881954;29;20516;-89
2021/01/23 17:52:08;;;;;;;8.40;7.00;;;4.50;99.90;;;;;;4882482;29;20544;-89
2021/01/23 17:54:36;;;;;;;8.90;7.97;;;4.50;16.70;;;;;;4883180;29;20482;-91
2021/01/23 17:57:05;;;;;;;12.70;11.13;;;4.50;99.90;;;;;;4883021;29;20474;-91
2021/01/23 17:59:32;;;;;;;13.40;11.40;;;4.40;99.90;;;;;;4883077;29;20636;-91
2021/01/23 18:01:58;;;;;;;15.37;12.47;;;4.40;99.90;;;;;;4886997;29;20479;-91
2021/01/23 18:04:25;;;;;;;16.90;13.20;;;4.40;1.00;;;;;;4886238;29;20990;-91
2021/01/23 18:06:55;;;;;;;11.90;9.20;;;4.30;99.90;;;;;;4886114;29;20554;-91
2021/01/23 18:09:22;;;;;;;7.87;6.40;;;4.30;57.50;;;;;;4886386;29;20770;-91
2021/01/23 18:11:50;;;;;;;9.93;9.03;;;4.20;99.90;;;;;;4886563;29;20467;-91
2021/01/23 18:14:17;;;;;;;6.27;5.67;;;4.10;1.00;;;;;;4886446;29;20920;-91
2021/01/23 18:16:46;;;;;;;8.73;7.80;;;4.20;91.10;;;;;;4886832;29;20486;-91
2021/01/23 18:19:13;;;;;;;11.10;9.30;;;4.20;91.50;;;;;;4885828;29;20527;-91
2021/01/23 18:21:40;;;;;;;11.40;9.03;;;4.20;99.90;;;;;;4885058;29;20561;-90
2021/01/23 18:24:07;;;;;;;7.40;6.53;;;4.10;99.90;;;;;;4886325;29;20569;-91
2021/01/23 18:26:36;;;;;;;13.13;8.40;;;4.10;99.90;;;;;;4886278;29;20495;-91
2021/01/23 18:29:05;;;;;;;20.30;12.43;;;4.20;99.90;;;;;;4885996;29;20604;-91
2021/01/23 18:31:32;;;;;;;11.70;7.40;;;4.10;99.90;;;;;;4886385;29;20485;-91
2021/01/23 18:33:59;;;;;;;10.30;8.90;;;4.10;99.90;;;;;;4885674;29;20462;-90
2021/01/23 18:36:26;;;;;;;8.80;7.80;;;4.10;99.90;;;;;;4885161;29;20707;-91
2021/01/23 18:38:53;;;;;;;14.00;9.40;;;4.10;99.90;;;;;;4885442;29;20477;-90
2021/01/23 18:41:20;;;;;;;11.17;8.93;;;4.20;99.90;;;;;;4885405;29;20537;-90
2021/01/23 18:43:46;;;;;;;15.90;11.60;;;4.20;99.90;;;;;;4885036;29;20463;-90
2021/01/23 18:46:14;;;;;;;9.77;8.67;;;4.10;93.90;;;;;;4886188;29;20478;-91
2021/01/23 18:48:41;;;;;;;11.10;8.83;;;4.20;83.70;;;;;;4886315;29;20606;-91
2021/01/23 18:51:08;;;;;;;12.20;9.90;;;4.10;1.00;;;;;;4886489;29;20485;-91
2021/01/23 18:53:35;;;;;;;9.70;7.50;;;4.10;1.00;;;;;;4886079;29;20899;-90
2021/01/23 18:56:02;;;;;;;9.00;7.97;;;4.10;1.00;;;;;;4885565;29;20474;-90
2021/01/23 18:58:29;;;;;;;7.90;6.60;;;4.00;88.90;;;;;;4885425;29;20562;-91
2021/01/23 19:00:57;;;;;;;8.47;7.57;;;4.00;99.90;;;;;;4885805;29;20835;-91
2021/01/23 19:03:24;;;;;;;6.10;5.00;;;4.00;99.90;;;;;;4885846;29;20735;-91
2021/01/23 19:05:51;;;;;;;6.53;5.83;;;4.00;99.90;;;;;;4885910;29;20557;-91
2021/01/23 19:08:24;;;;;;;8.00;7.13;;;3.90;1.00;;;;;;4885753;29;20504;-91
2021/01/23 19:10:54;;;;;;;9.03;8.03;;;3.90;1.00;;;;;;4866778;29;20872;-91
2021/01/23 19:13:21;;;;;;;11.53;9.20;;;3.90;1.00;;;;;;4874152;29;20568;-91
2021/01/23 19:15:48;;;;;;;13.90;8.50;;;3.90;1.00;;;;;;4875376;29;20745;-91
2021/01/23 19:18:20;;;;;;;21.00;14.50;;;3.90;25.30;;;;;;4875154;29;20806;-91
2021/01/23 19:20:49;;;;;;;11.73;8.17;;;3.80;49.40;;;;;;4874465;29;20477;-91
2021/01/23 19:23:17;;;;;;;10.73;7.80;;;3.80;67.20;;;;;;4884786;29;20773;-90
2021/01/23 19:25:45;;;;;;;11.63;8.47;;;3.80;14.60;;;;;;4884716;29;20463;-90
2021/01/23 19:28:12;;;;;;;8.33;7.40;;;3.90;1.00;;;;;;4885126;29;20504;-90
2021/01/23 19:30:40;;;;;;;9.20;8.30;;;3.90;1.00;;;;;;4885371;29;20920;-91
2021/01/23 19:34:14;;;;;;;7.83;6.70;;;3.90;1.00;;;;;;4885575;29;20723;-91
2021/01/23 19:55:17;;;;;;;11.40;8.40;;;3.80;1.00;;;;;;4878463;24;20876;-91
2021/01/23 20:29:23;;;;;;;10.57;8.77;;;3.80;1.00;;;;;;4845271;29;20507;-91
2021/01/23 20:31:52;;;;;;;12.10;9.50;;;3.80;99.90;;;;;;4846172;29;20488;-92
2021/01/23 20:34:20;;;;;;;10.90;8.77;;;3.80;99.90;;;;;;4845102;29;20483;-92
2021/01/23 20:36:47;;;;;;;10.90;9.80;;;3.80;99.90;;;;;;4831688;29;20564;-92
